sensor_id;sensor_type;location;lat;lon;timestamp;pressure;altitude;pressure_sealevel;temperature;humidity
13581;BME280;6861;46.170;7.222;2023-06-22T00:01:22;95982.81;;;26.26;41.89
13581;BME280;6861;46.170;7.222;2023-06-22T00:03:50;95982.66;;;26.12;41.96
13581;BME280;6861;46.170;7.222;2023-06-22T00:06:18;95982.16;;;26.03;42.33
13581;BME280;6861;46.170;7.222;2023-06-22T00:08:46;95980.19;;;25.96;42.42
13581;BME280;6861;46.170;7.222;2023-06-22T00:11:16;95980.19;;;25.96;42.26
13581;BME280;6861;46.170;7.222;2023-06-22T00:13:44;95972.44;;;25.91;42.08
13581;BME280;6861;46.170;7.222;2023-06-22T00:16:14;95985.53;;;25.96;42.40
13581;BME280;6861;46.170;7.222;2023-06-22T00:18:42;95996.25;;;25.96;42.28
13581;BME280;6861;46.170;7.222;2023-06-22T00:21:14;95994.31;;;25.93;42.58
13581;BME280;6861;46.170;7.222;2023-06-22T00:23:42;96003.44;;;25.89;42.62
13581;BME280;6861;46.170;7.222;2023-06-22T00:26:10;95992.66;;;25.85;42.79
13581;BME280;6861;46.170;7.222;2023-06-22T00:28:40;95986.47;;;25.81;42.66
13581;BME280;6861;46.170;7.222;2023-06-22T00:31:09;95995.97;;;25.75;42.34
13581;BME280;6861;46.170;7.222;2023-06-22T00:33:37;95992.47;;;25.71;42.43
13581;BME280;6861;46.170;7.222;2023-06-22T00:36:05;95992.78;;;25.66;42.07
13581;BME280;6861;46.170;7.222;2023-06-22T00:38:34;95983.19;;;25.65;42.63
13581;BME280;6861;46.170;7.222;2023-06-22T00:41:07;95983.59;;;25.67;43.08
13581;BME280;6861;46.170;7.222;2023-06-22T00:43:35;95987.59;;;25.54;43.44
13581;BME280;6861;46.170;7.222;2023-06-22T00:46:05;95980.47;;;25.38;43.96
13581;BME280;6861;46.170;7.222;2023-06-22T00:48:33;95977.97;;;25.26;44.37
13581;BME280;6861;46.170;7.222;2023-06-22T00:51:03;95970.91;;;25.14;44.63
13581;BME280;6861;46.170;7.222;2023-06-22T00:53:32;95970.31;;;25.02;45.03
13581;BME280;6861;46.170;7.222;2023-06-22T00:56:02;95961.31;;;24.91;45.14
13581;BME280;6861;46.170;7.222;2023-06-22T00:58:31;95973.84;;;24.87;45.38
13581;BME280;6861;46.170;7.222;2023-06-22T01:00:59;95986.00;;;24.80;45.37
13581;BME280;6861;46.170;7.222;2023-06-22T01:03:30;95980.94;;;24.75;45.76
13581;BME280;6861;46.170;7.222;2023-06-22T01:06:02;95974.03;;;24.74;45.73
13581;BME280;6861;46.170;7.222;2023-06-22T01:08:42;95977.84;;;24.73;45.71
13581;BME280;6861;46.170;7.222;2023-06-22T01:11:16;95977.00;;;24.69;45.92
13581;BME280;6861;46.170;7.222;2023-06-22T01:13:50;95973.06;;;24.63;45.93
13581;BME280;6861;46.170;7.222;2023-06-22T01:16:23;95973.75;;;24.60;45.89
13581;BME280;6861;46.170;7.222;2023-06-22T01:18:55;95969.91;;;24.58;45.83
13581;BME280;6861;46.170;7.222;2023-06-22T01:21:28;95966.03;;;24.55;45.81
13581;BME280;6861;46.170;7.222;2023-06-22T01:24:06;95964.19;;;24.59;45.72
13581;BME280;6861;46.170;7.222;2023-06-22T01:26:42;95971.50;;;24.62;45.40
13581;BME280;6861;46.170;7.222;2023-06-22T01:29:12;95964.75;;;24.68;45.35
13581;BME280;6861;46.170;7.222;2023-06-22T01:31:43;95961.34;;;24.71;45.30
13581;BME280;6861;46.170;7.222;2023-06-22T01:34:12;95957.84;;;24.67;45.29
13581;BME280;6861;46.170;7.222;2023-06-22T01:36:42;95965.44;;;24.65;45.20
13581;BME280;6861;46.170;7.222;2023-06-22T01:39:11;95957.72;;;24.60;45.57
13581;BME280;6861;46.170;7.222;2023-06-22T01:41:41;95951.81;;;24.51;45.93
13581;BME280;6861;46.170;7.222;2023-06-22T01:44:12;95955.75;;;24.38;46.09
13581;BME280;6861;46.170;7.222;2023-06-22T01:46:40;95943.38;;;24.30;46.20
13581;BME280;6861;46.170;7.222;2023-06-22T01:49:09;95957.03;;;24.25;46.54
13581;BME280;6861;46.170;7.222;2023-06-22T01:51:38;95953.50;;;24.21;46.38
13581;BME280;6861;46.170;7.222;2023-06-22T01:54:06;95954.50;;;24.12;46.66
13581;BME280;6861;46.170;7.222;2023-06-22T01:56:35;95942.25;;;24.11;46.82
13581;BME280;6861;46.170;7.222;2023-06-22T01:59:09;95946.91;;;24.14;46.78
13581;BME280;6861;46.170;7.222;2023-06-22T02:01:43;95941.56;;;24.14;46.93
13581;BME280;6861;46.170;7.222;2023-06-22T02:04:16;95939.59;;;24.11;46.74
13581;BME280;6861;46.170;7.222;2023-06-22T02:06:49;95934.88;;;24.05;46.67
13581;BME280;6861;46.170;7.222;2023-06-22T02:09:20;95930.50;;;23.97;46.44
13581;BME280;6861;46.170;7.222;2023-06-22T02:11:52;95928.19;;;23.95;46.18
13581;BME280;6861;46.170;7.222;2023-06-22T02:14:22;95939.56;;;23.92;46.24
13581;BME280;6861;46.170;7.222;2023-06-22T02:16:52;95943.09;;;23.96;46.10
13581;BME280;6861;46.170;7.222;2023-06-22T02:19:23;95943.94;;;24.00;46.17
13581;BME280;6861;46.170;7.222;2023-06-22T02:21:52;95954.34;;;24.05;45.91
13581;BME280;6861;46.170;7.222;2023-06-22T02:24:20;95944.50;;;24.09;45.95
13581;BME280;6861;46.170;7.222;2023-06-22T02:26:50;95942.97;;;24.08;45.73
13581;BME280;6861;46.170;7.222;2023-06-22T02:29:18;95945.22;;;24.06;45.83
13581;BME280;6861;46.170;7.222;2023-06-22T02:31:46;95942.47;;;24.03;45.77
13581;BME280;6861;46.170;7.222;2023-06-22T02:34:16;95939.28;;;23.97;46.16
13581;BME280;6861;46.170;7.222;2023-06-22T02:36:45;95930.00;;;23.91;45.84
13581;BME280;6861;46.170;7.222;2023-06-22T02:39:19;95937.19;;;23.87;46.23
13581;BME280;6861;46.170;7.222;2023-06-22T02:41:49;95939.69;;;23.80;46.63
13581;BME280;6861;46.170;7.222;2023-06-22T02:44:17;95933.44;;;23.72;46.42
13581;BME280;6861;46.170;7.222;2023-06-22T02:46:46;95925.00;;;23.70;46.30
13581;BME280;6861;46.170;7.222;2023-06-22T02:49:16;95918.78;;;23.66;46.32
13581;BME280;6861;46.170;7.222;2023-06-22T02:51:46;95936.03;;;23.69;46.37
13581;BME280;6861;46.170;7.222;2023-06-22T02:54:15;95926.31;;;23.61;46.66
13581;BME280;6861;46.170;7.222;2023-06-22T02:56:43;95907.47;;;23.53;46.56
13581;BME280;6861;46.170;7.222;2023-06-22T02:59:11;95905.09;;;23.52;46.14
13581;BME280;6861;46.170;7.222;2023-06-22T03:01:40;95911.66;;;23.54;46.37
13581;BME280;6861;46.170;7.222;2023-06-22T03:04:08;95907.34;;;23.50;46.33
13581;BME280;6861;46.170;7.222;2023-06-22T03:06:38;95916.75;;;23.44;46.90
13581;BME280;6861;46.170;7.222;2023-06-22T03:09:07;95916.28;;;23.38;46.73
13581;BME280;6861;46.170;7.222;2023-06-22T03:11:35;95922.31;;;23.35;46.63
13581;BME280;6861;46.170;7.222;2023-06-22T03:14:04;95916.13;;;23.31;46.79
13581;BME280;6861;46.170;7.222;2023-06-22T03:16:32;95909.91;;;23.27;47.19
13581;BME280;6861;46.170;7.222;2023-06-22T03:19:00;95908.38;;;23.26;46.86
13581;BME280;6861;46.170;7.222;2023-06-22T03:21:29;95906.47;;;23.27;47.16
13581;BME280;6861;46.170;7.222;2023-06-22T03:24:00;95900.28;;;23.23;47.06
13581;BME280;6861;46.170;7.222;2023-06-22T03:26:28;95901.66;;;23.16;47.23
13581;BME280;6861;46.170;7.222;2023-06-22T03:28:56;95905.81;;;23.14;47.69
13581;BME280;6861;46.170;7.222;2023-06-22T03:31:25;95912.53;;;23.08;47.58
13581;BME280;6861;46.170;7.222;2023-06-22T03:33:53;95913.91;;;23.02;47.92
13581;BME280;6861;46.170;7.222;2023-06-22T03:36:22;95907.88;;;23.05;47.78
13581;BME280;6861;46.170;7.222;2023-06-22T03:38:51;95907.19;;;23.08;47.48
13581;BME280;6861;46.170;7.222;2023-06-22T03:41:21;95906.50;;;23.11;47.90
13581;BME280;6861;46.170;7.222;2023-06-22T03:43:49;95907.63;;;23.10;47.93
13581;BME280;6861;46.170;7.222;2023-06-22T03:46:17;95914.06;;;23.09;47.66
13581;BME280;6861;46.170;7.222;2023-06-22T03:48:46;95916.31;;;23.07;47.92
13581;BME280;6861;46.170;7.222;2023-06-22T03:51:15;95915.19;;;23.08;47.96
13581;BME280;6861;46.170;7.222;2023-06-22T03:53:43;95904.09;;;23.06;47.64
13581;BME280;6861;46.170;7.222;2023-06-22T03:56:11;95905.63;;;23.07;47.52
13581;BME280;6861;46.170;7.222;2023-06-22T03:58:41;95904.84;;;23.06;47.87
13581;BME280;6861;46.170;7.222;2023-06-22T04:01:12;95919.41;;;23.09;48.11
13581;BME280;6861;46.170;7.222;2023-06-22T04:03:41;95910.97;;;23.07;48.02
13581;BME280;6861;46.170;7.222;2023-06-22T04:06:09;95909.78;;;23.04;47.70
13581;BME280;6861;46.170;7.222;2023-06-22T04:08:37;95899.28;;;22.96;48.19
13581;BME280;6861;46.170;7.222;2023-06-22T04:11:05;95891.09;;;22.88;48.18
13581;BME280;6861;46.170;7.222;2023-06-22T04:13:33;95890.22;;;22.84;48.60
13581;BME280;6861;46.170;7.222;2023-06-22T04:16:03;95896.25;;;22.81;48.38
13581;BME280;6861;46.170;7.222;2023-06-22T04:18:32;95893.47;;;22.78;48.07
13581;BME280;6861;46.170;7.222;2023-06-22T04:21:01;95887.81;;;22.79;48.29
13581;BME280;6861;46.170;7.222;2023-06-22T04:23:30;95882.91;;;22.81;48.43
13581;BME280;6861;46.170;7.222;2023-06-22T04:25:58;95878.44;;;22.85;48.10
13581;BME280;6861;46.170;7.222;2023-06-22T04:28:27;95873.28;;;22.93;47.59
13581;BME280;6861;46.170;7.222;2023-06-22T04:30:55;95882.56;;;22.99;47.89
13581;BME280;6861;46.170;7.222;2023-06-22T04:33:26;95894.03;;;22.99;47.28
13581;BME280;6861;46.170;7.222;2023-06-22T04:35:56;95900.91;;;23.00;47.28
13581;BME280;6861;46.170;7.222;2023-06-22T04:38:24;95907.88;;;23.05;47.37
13581;BME280;6861;46.170;7.222;2023-06-22T04:40:53;95907.19;;;23.08;47.40
13581;BME280;6861;46.170;7.222;2023-06-22T04:43:21;95911.06;;;23.10;47.33
13581;BME280;6861;46.170;7.222;2023-06-22T04:45:49;95923.78;;;23.17;46.90
13581;BME280;6861;46.170;7.222;2023-06-22T04:48:19;95909.50;;;23.25;47.06
13581;BME280;6861;46.170;7.222;2023-06-22T04:50:49;95914.56;;;23.30;47.13
13581;BME280;6861;46.170;7.222;2023-06-22T04:53:17;95922.31;;;23.35;46.43
13581;BME280;6861;46.170;7.222;2023-06-22T04:55:45;95910.97;;;23.42;46.38
13581;BME280;6861;46.170;7.222;2023-06-22T04:58:15;95913.47;;;23.50;46.43
13581;BME280;6861;46.170;7.222;2023-06-22T05:00:46;95913.81;;;23.65;46.13
13581;BME280;6861;46.170;7.222;2023-06-22T05:03:18;95915.44;;;23.69;46.18
13581;BME280;6861;46.170;7.222;2023-06-22T05:05:48;95919.28;;;23.72;45.83
13581;BME280;6861;46.170;7.222;2023-06-22T05:08:17;95902.56;;;23.75;45.94
13581;BME280;6861;46.170;7.222;2023-06-22T05:10:45;95912.28;;;23.83;45.96
13581;BME280;6861;46.170;7.222;2023-06-22T05:13:30;95911.56;;;23.86;45.94
13581;BME280;6861;46.170;7.222;2023-06-22T05:15:59;95915.03;;;23.86;46.19
13581;BME280;6861;46.170;7.222;2023-06-22T05:18:30;95914.94;;;23.83;46.45
13581;BME280;6861;46.170;7.222;2023-06-22T05:21:01;95919.16;;;23.84;46.45
13581;BME280;6861;46.170;7.222;2023-06-22T05:23:30;95928.66;;;23.81;46.66
13581;BME280;6861;46.170;7.222;2023-06-22T05:25:58;95923.16;;;23.74;46.89
13581;BME280;6861;46.170;7.222;2023-06-22T05:28:26;95939.13;;;23.71;46.80
13581;BME280;6861;46.170;7.222;2023-06-22T05:30:54;95945.16;;;23.68;47.41
13581;BME280;6861;46.170;7.222;2023-06-22T05:33:22;95948.19;;;23.66;47.49
13581;BME280;6861;46.170;7.222;2023-06-22T05:35:51;95953.53;;;23.66;47.48
13581;BME280;6861;46.170;7.222;2023-06-22T05:38:20;95948.53;;;23.65;47.51
13581;BME280;6861;46.170;7.222;2023-06-22T05:40:49;95959.66;;;23.67;47.30
13581;BME280;6861;46.170;7.222;2023-06-22T05:43:17;95969.22;;;23.68;47.21
13581;BME280;6861;46.170;7.222;2023-06-22T05:45:45;95973.09;;;23.70;46.95
13581;BME280;6861;46.170;7.222;2023-06-22T05:48:13;95995.81;;;23.80;47.58
13581;BME280;6861;46.170;7.222;2023-06-22T05:50:42;95993.72;;;23.89;47.39
13581;BME280;6861;46.170;7.222;2023-06-22T05:53:10;96010.28;;;23.95;47.91
13581;BME280;6861;46.170;7.222;2023-06-22T05:55:39;96022.16;;;23.97;47.79
13581;BME280;6861;46.170;7.222;2023-06-22T05:58:08;96042.00;;;23.96;47.83
13581;BME280;6861;46.170;7.222;2023-06-22T06:00:37;96061.13;;;23.98;47.94
13581;BME280;6861;46.170;7.222;2023-06-22T06:03:05;96078.72;;;23.99;46.90
13581;BME280;6861;46.170;7.222;2023-06-22T06:05:33;96085.63;;;24.00;46.92
13581;BME280;6861;46.170;7.222;2023-06-22T06:08:03;96082.75;;;24.09;46.92
13581;BME280;6861;46.170;7.222;2023-06-22T06:10:32;96089.91;;;24.21;47.09
13581;BME280;6861;46.170;7.222;2023-06-22T06:13:02;96087.81;;;24.30;47.79
13581;BME280;6861;46.170;7.222;2023-06-22T06:15:31;96099.50;;;24.41;47.83
13581;BME280;6861;46.170;7.222;2023-06-22T06:17:59;96091.97;;;24.46;48.41
13581;BME280;6861;46.170;7.222;2023-06-22T06:20:29;96095.94;;;24.52;48.59
13581;BME280;6861;46.170;7.222;2023-06-22T06:22:57;96101.44;;;24.60;49.33
13581;BME280;6861;46.170;7.222;2023-06-22T06:25:26;96107.13;;;24.58;49.33
13581;BME280;6861;46.170;7.222;2023-06-22T06:27:54;96113.69;;;24.61;50.03
13581;BME280;6861;46.170;7.222;2023-06-22T06:30:24;96110.66;;;24.62;50.36
13581;BME280;6861;46.170;7.222;2023-06-22T06:32:52;96112.28;;;24.67;50.30
13581;BME280;6861;46.170;7.222;2023-06-22T06:35:21;96103.91;;;24.68;50.59
13581;BME280;6861;46.170;7.222;2023-06-22T06:37:50;96092.50;;;24.71;50.99
13581;BME280;6861;46.170;7.222;2023-06-22T06:40:18;96090.31;;;24.77;50.50
13581;BME280;6861;46.170;7.222;2023-06-22T06:42:48;96088.97;;;24.87;50.84
13581;BME280;6861;46.170;7.222;2023-06-22T06:45:18;96082.19;;;24.93;50.65
13581;BME280;6861;46.170;7.222;2023-06-22T06:47:49;96090.66;;;24.95;50.95
13581;BME280;6861;46.170;7.222;2023-06-22T06:50:17;96099.13;;;24.97;51.12
13581;BME280;6861;46.170;7.222;2023-06-22T06:52:46;96099.47;;;24.95;51.32
13581;BME280;6861;46.170;7.222;2023-06-22T06:55:14;96092.19;;;24.96;51.49
13581;BME280;6861;46.170;7.222;2023-06-22T06:57:42;96097.56;;;24.96;51.62
13581;BME280;6861;46.170;7.222;2023-06-22T07:00:15;96086.16;;;24.99;51.86
13581;BME280;6861;46.170;7.222;2023-06-22T07:02:44;96084.69;;;25.01;51.66
13581;BME280;6861;46.170;7.222;2023-06-22T07:05:16;96077.97;;;25.11;51.66
13581;BME280;6861;46.170;7.222;2023-06-22T07:07:45;96083.34;;;25.11;51.81
13581;BME280;6861;46.170;7.222;2023-06-22T07:10:13;96081.88;;;25.17;51.95
13581;BME280;6861;46.170;7.222;2023-06-22T07:12:42;96081.25;;;25.24;52.08
13581;BME280;6861;46.170;7.222;2023-06-22T07:15:11;96073.69;;;25.29;51.73
13581;BME280;6861;46.170;7.222;2023-06-22T07:17:40;96082.13;;;25.31;52.28
13581;BME280;6861;46.170;7.222;2023-06-22T07:20:10;96071.06;;;25.33;52.26
13581;BME280;6861;46.170;7.222;2023-06-22T07:22:42;96071.53;;;25.38;52.75
13581;BME280;6861;46.170;7.222;2023-06-22T07:25:11;96073.50;;;25.41;52.56
13581;BME280;6861;46.170;7.222;2023-06-22T07:27:44;96066.31;;;25.45;52.61
13581;BME280;6861;46.170;7.222;2023-06-22T07:30:13;96065.53;;;25.45;52.67
13581;BME280;6861;46.170;7.222;2023-06-22T07:32:41;96068.69;;;25.51;52.57
13581;BME280;6861;46.170;7.222;2023-06-22T07:35:09;96068.03;;;25.57;52.57
13581;BME280;6861;46.170;7.222;2023-06-22T07:37:39;96068.81;;;25.58;52.30
13581;BME280;6861;46.170;7.222;2023-06-22T07:40:08;96063.50;;;25.61;52.08
13581;BME280;6861;46.170;7.222;2023-06-22T07:42:37;96060.59;;;25.70;52.36
13581;BME280;6861;46.170;7.222;2023-06-22T07:45:07;96065.31;;;25.76;52.17
13581;BME280;6861;46.170;7.222;2023-06-22T07:47:35;96050.81;;;25.81;51.71
13581;BME280;6861;46.170;7.222;2023-06-22T07:50:05;96056.28;;;25.88;51.57
13581;BME280;6861;46.170;7.222;2023-06-22T07:52:33;96057.84;;;25.89;51.41
13581;BME280;6861;46.170;7.222;2023-06-22T07:55:03;96057.00;;;25.85;52.08
13581;BME280;6861;46.170;7.222;2023-06-22T07:57:32;96054.31;;;25.85;52.11
13581;BME280;6861;46.170;7.222;2023-06-22T08:00:03;96056.66;;;25.87;52.62
13581;BME280;6861;46.170;7.222;2023-06-22T08:02:38;96051.69;;;25.89;52.26
13581;BME280;6861;46.170;7.222;2023-06-22T08:05:07;96041.38;;;25.91;51.99
13581;BME280;6861;46.170;7.222;2023-06-22T08:07:47;96038.03;;;25.97;52.05
13581;BME280;6861;46.170;7.222;2023-06-22T08:10:17;96039.97;;;26.00;51.72
13581;BME280;6861;46.170;7.222;2023-06-22T08:12:46;96040.41;;;26.06;51.32
13581;BME280;6861;46.170;7.222;2023-06-22T08:15:14;96045.94;;;26.17;51.07
13581;BME280;6861;46.170;7.222;2023-06-22T08:17:43;96046.03;;;26.24;51.23
13581;BME280;6861;46.170;7.222;2023-06-22T08:20:12;96051.50;;;26.31;51.39
13581;BME280;6861;46.170;7.222;2023-06-22T08:22:41;96058.13;;;26.37;50.58
13581;BME280;6861;46.170;7.222;2023-06-22T08:25:10;96062.75;;;26.40;50.58
13581;BME280;6861;46.170;7.222;2023-06-22T08:27:39;96055.53;;;26.44;50.24
13581;BME280;6861;46.170;7.222;2023-06-22T08:30:09;96040.97;;;26.45;50.25
13581;BME280;6861;46.170;7.222;2023-06-22T08:32:38;96026.38;;;26.42;49.58
13581;BME280;6861;46.170;7.222;2023-06-22T08:35:07;96029.41;;;26.41;49.83
13581;BME280;6861;46.170;7.222;2023-06-22T08:37:36;96034.78;;;26.41;50.13
13581;BME280;6861;46.170;7.222;2023-06-22T08:40:08;96020.22;;;26.42;50.06
13581;BME280;6861;46.170;7.222;2023-06-22T08:42:40;95993.34;;;26.38;50.30
13581;BME280;6861;46.170;7.222;2023-06-22T08:45:09;95994.81;;;26.32;50.54
13581;BME280;6861;46.170;7.222;2023-06-22T08:47:38;95990.91;;;26.30;51.12
13581;BME280;6861;46.170;7.222;2023-06-22T08:50:08;95993.31;;;26.35;51.34
13581;BME280;6861;46.170;7.222;2023-06-22T08:52:37;95996.47;;;26.44;50.88
13581;BME280;6861;46.170;7.222;2023-06-22T08:55:09;96004.28;;;26.56;50.89
13581;BME280;6861;46.170;7.222;2023-06-22T08:57:38;95997.56;;;26.73;50.25
13581;BME280;6861;46.170;7.222;2023-06-22T09:00:08;95993.50;;;26.90;49.45
13581;BME280;6861;46.170;7.222;2023-06-22T09:02:44;95995.59;;;27.07;48.29
13581;BME280;6861;46.170;7.222;2023-06-22T09:05:13;95991.16;;;27.25;47.93
13581;BME280;6861;46.170;7.222;2023-06-22T09:07:41;95994.72;;;27.40;47.83
13581;BME280;6861;46.170;7.222;2023-06-22T09:10:10;95994.84;;;27.54;47.45
13581;BME280;6861;46.170;7.222;2023-06-22T09:12:40;95993.78;;;27.62;46.90
13581;BME280;6861;46.170;7.222;2023-06-22T09:15:09;95989.25;;;27.77;47.29
13581;BME280;6861;46.170;7.222;2023-06-22T09:17:43;95989.34;;;27.95;46.44
13581;BME280;6861;46.170;7.222;2023-06-22T09:20:13;95999.41;;;28.08;46.45
13581;BME280;6861;46.170;7.222;2023-06-22T09:22:42;96007.53;;;28.16;46.78
13581;BME280;6861;46.170;7.222;2023-06-22T09:25:10;96020.22;;;28.19;46.23
13581;BME280;6861;46.170;7.222;2023-06-22T09:27:40;96025.59;;;28.15;46.13
13581;BME280;6861;46.170;7.222;2023-06-22T09:30:09;96034.00;;;28.06;46.28
13581;BME280;6861;46.170;7.222;2023-06-22T09:32:37;96026.59;;;27.89;46.06
13581;BME280;6861;46.170;7.222;2023-06-22T09:35:06;96038.41;;;27.78;47.02
13581;BME280;6861;46.170;7.222;2023-06-22T09:37:36;96037.97;;;27.65;48.03
13581;BME280;6861;46.170;7.222;2023-06-22T09:40:06;96032.84;;;27.53;48.11
13581;BME280;6861;46.170;7.222;2023-06-22T09:42:38;96008.22;;;27.47;47.99
13581;BME280;6861;46.170;7.222;2023-06-22T09:45:08;95983.63;;;27.41;48.54
13581;BME280;6861;46.170;7.222;2023-06-22T09:47:37;95980.50;;;27.36;48.53
13581;BME280;6861;46.170;7.222;2023-06-22T09:50:06;95988.94;;;27.34;48.91
13581;BME280;6861;46.170;7.222;2023-06-22T09:52:34;96004.31;;;27.37;49.67
13581;BME280;6861;46.170;7.222;2023-06-22T09:55:06;96003.53;;;27.37;50.02
13581;BME280;6861;46.170;7.222;2023-06-22T09:57:34;96011.97;;;27.35;50.41
13581;BME280;6861;46.170;7.222;2023-06-22T10:00:03;96013.44;;;27.26;51.19
13581;BME280;6861;46.170;7.222;2023-06-22T10:02:36;95996.47;;;27.18;51.18
13581;BME280;6861;46.170;7.222;2023-06-22T10:05:05;95984.19;;;27.17;51.28
13581;BME280;6861;46.170;7.222;2023-06-22T10:07:34;95976.53;;;27.19;51.32
13581;BME280;6861;46.170;7.222;2023-06-22T10:10:07;95981.16;;;27.22;51.05
13581;BME280;6861;46.170;7.222;2023-06-22T10:12:36;95978.13;;;27.27;51.03
13581;BME280;6861;46.170;7.222;2023-06-22T10:15:05;95962.81;;;27.31;50.80
13581;BME280;6861;46.170;7.222;2023-06-22T10:17:33;95979.31;;;27.33;50.08
13581;BME280;6861;46.170;7.222;2023-06-22T10:20:04;95989.69;;;27.31;50.51
13581;BME280;6861;46.170;7.222;2023-06-22T10:22:39;95975.78;;;27.22;49.84
13581;BME280;6861;46.170;7.222;2023-06-22T10:25:08;95961.94;;;27.20;50.31
13581;BME280;6861;46.170;7.222;2023-06-22T10:27:36;95971.53;;;27.18;50.53
13581;BME280;6861;46.170;7.222;2023-06-22T10:30:07;95991.06;;;27.15;50.62
13581;BME280;6861;46.170;7.222;2023-06-22T10:32:37;95976.47;;;27.12;50.90
13581;BME280;6861;46.170;7.222;2023-06-22T10:35:07;95968.00;;;27.10;50.41
13581;BME280;6861;46.170;7.222;2023-06-22T10:37:37;95973.34;;;27.06;49.30
13581;BME280;6861;46.170;7.222;2023-06-22T10:40:06;95967.59;;;27.08;48.94
13581;BME280;6861;46.170;7.222;2023-06-22T10:42:35;95982.56;;;27.09;49.94
13581;BME280;6861;46.170;7.222;2023-06-22T10:45:04;95986.06;;;27.13;50.30
13581;BME280;6861;46.170;7.222;2023-06-22T10:47:32;95969.56;;;27.15;50.74
13581;BME280;6861;46.170;7.222;2023-06-22T10:50:01;95948.06;;;27.11;50.63
13581;BME280;6861;46.170;7.222;2023-06-22T10:52:31;95940.34;;;27.06;50.51
13581;BME280;6861;46.170;7.222;2023-06-22T10:54:59;95961.09;;;27.09;51.24
13581;BME280;6861;46.170;7.222;2023-06-22T10:57:27;95961.88;;;27.13;51.26
13581;BME280;6861;46.170;7.222;2023-06-22T10:59:55;95971.91;;;27.16;51.50
13581;BME280;6861;46.170;7.222;2023-06-22T11:02:24;95981.13;;;27.19;51.04
13581;BME280;6861;46.170;7.222;2023-06-22T11:04:52;95978.44;;;27.19;51.61
13581;BME280;6861;46.170;7.222;2023-06-22T11:07:20;95966.13;;;27.14;51.25
13581;BME280;6861;46.170;7.222;2023-06-22T11:09:59;95952.28;;;27.12;50.77
13581;BME280;6861;46.170;7.222;2023-06-22T11:12:27;95930.75;;;27.08;51.36
13581;BME280;6861;46.170;7.222;2023-06-22T11:14:55;95916.56;;;27.08;51.53
13581;BME280;6861;46.170;7.222;2023-06-22T11:17:25;95923.41;;;27.02;51.61
13581;BME280;6861;46.170;7.222;2023-06-22T11:19:53;95929.53;;;26.99;51.56
13581;BME280;6861;46.170;7.222;2023-06-22T11:22:22;95923.41;;;26.98;51.79
13581;BME280;6861;46.170;7.222;2023-06-22T11:24:50;95918.06;;;27.02;52.32
13581;BME280;6861;46.170;7.222;2023-06-22T11:27:19;95905.81;;;27.08;51.41
13581;BME280;6861;46.170;7.222;2023-06-22T11:29:48;95900.13;;;27.17;50.68
13581;BME280;6861;46.170;7.222;2023-06-22T11:32:16;95890.56;;;27.23;49.74
13581;BME280;6861;46.170;7.222;2023-06-22T11:34:44;95876.81;;;27.31;48.31
13581;BME280;6861;46.170;7.222;2023-06-22T11:37:13;95879.97;;;27.44;48.48
13581;BME280;6861;46.170;7.222;2023-06-22T11:39:42;95874.66;;;27.55;48.09
13581;BME280;6861;46.170;7.222;2023-06-22T11:42:20;95859.38;;;27.66;47.12
13581;BME280;6861;46.170;7.222;2023-06-22T11:44:50;95869.38;;;27.76;46.39
13581;BME280;6861;46.170;7.222;2023-06-22T11:47:18;95871.34;;;27.86;47.27
13581;BME280;6861;46.170;7.222;2023-06-22T11:49:46;95884.03;;;27.89;46.79
13581;BME280;6861;46.170;7.222;2023-06-22T11:52:14;95879.41;;;27.86;47.50
13581;BME280;6861;46.170;7.222;2023-06-22T11:54:44;95894.75;;;27.82;47.54
13581;BME280;6861;46.170;7.222;2023-06-22T11:57:12;95905.13;;;27.80;48.16
13581;BME280;6861;46.170;7.222;2023-06-22T11:59:42;95903.56;;;27.72;47.95
13581;BME280;6861;46.170;7.222;2023-06-22T12:02:10;95919.31;;;27.77;47.69
13581;BME280;6861;46.170;7.222;2023-06-22T12:04:39;95929.69;;;27.75;47.25
13581;BME280;6861;46.170;7.222;2023-06-22T12:07:07;95933.16;;;27.72;46.08
13581;BME280;6861;46.170;7.222;2023-06-22T12:09:35;95940.06;;;27.69;46.07
13581;BME280;6861;46.170;7.222;2023-06-22T12:12:04;95944.94;;;27.57;46.74
13581;BME280;6861;46.170;7.222;2023-06-22T12:14:33;95944.06;;;27.42;46.26
13581;BME280;6861;46.170;7.222;2023-06-22T12:17:03;95946.72;;;27.35;47.48
13581;BME280;6861;46.170;7.222;2023-06-22T12:19:31;95932.16;;;27.39;47.35
13581;BME280;6861;46.170;7.222;2023-06-22T12:21:59;95938.75;;;27.53;47.11
13581;BME280;6861;46.170;7.222;2023-06-22T12:24:27;95920.84;;;27.71;46.35
13581;BME280;6861;46.170;7.222;2023-06-22T12:26:56;95917.84;;;27.87;46.38
13581;BME280;6861;46.170;7.222;2023-06-22T12:29:24;95930.19;;;28.02;46.19
13581;BME280;6861;46.170;7.222;2023-06-22T12:31:52;95935.63;;;28.13;45.87
13581;BME280;6861;46.170;7.222;2023-06-22T12:34:22;95933.31;;;28.15;46.06
13581;BME280;6861;46.170;7.222;2023-06-22T12:36:50;95926.38;;;28.10;45.91
13581;BME280;6861;46.170;7.222;2023-06-22T12:39:20;95921.00;;;28.06;45.67
13581;BME280;6861;46.170;7.222;2023-06-22T12:41:49;95930.19;;;28.02;45.00
13581;BME280;6861;46.170;7.222;2023-06-22T12:44:17;95897.88;;;27.91;44.60
13581;BME280;6861;46.170;7.222;2023-06-22T12:46:45;95904.00;;;27.85;44.36
13581;BME280;6861;46.170;7.222;2023-06-22T12:49:13;95903.59;;;27.79;44.58
13581;BME280;6861;46.170;7.222;2023-06-22T12:51:43;95895.50;;;27.72;44.01
13581;BME280;6861;46.170;7.222;2023-06-22T12:54:12;95907.75;;;27.66;44.01
13581;BME280;6861;46.170;7.222;2023-06-22T12:56:41;95909.28;;;27.60;44.51
13581;BME280;6861;46.170;7.222;2023-06-22T12:59:10;95906.91;;;27.55;44.28
13581;BME280;6861;46.170;7.222;2023-06-22T13:01:39;95923.00;;;27.51;44.13
13581;BME280;6861;46.170;7.222;2023-06-22T13:04:07;95919.13;;;27.41;44.57
13581;BME280;6861;46.170;7.222;2023-06-22T13:06:37;95927.88;;;27.31;44.88
13581;BME280;6861;46.170;7.222;2023-06-22T13:09:07;95918.97;;;27.20;44.63
13581;BME280;6861;46.170;7.222;2023-06-22T13:11:46;95924.63;;;27.08;44.50
13581;BME280;6861;46.170;7.222;2023-06-22T13:14:15;95941.81;;;27.00;44.62
13581;BME280;6861;46.170;7.222;2023-06-22T13:16:44;95958.63;;;26.93;44.05
13581;BME280;6861;46.170;7.222;2023-06-22T13:19:12;95973.16;;;26.89;44.35
13581;BME280;6861;46.170;7.222;2023-06-22T13:21:41;95980.03;;;26.83;44.19